Ouro Preto, Brazil
Current Conditions -  °F | °C
As of 4:00 PM on Friday 24 Oct 2014 (Local Time) from SBNT Reporting Station
Few Clouds Few Clouds  
Wind Chill: 82°   Ceiling: Unl
Heat Index: 84°   Visibility: 6mi
Dew Point: 64°   Wind: 21mph
Humidity: 54%   Direction: 140°SE
Pressure: 29.88"   Gusts: NA
Location:  5.72°S, 35.97°W
Report Text: SBNT 241900Z 14018KT 9999 FEW023 28/18 Q1012
Loading
Personal Weather Stations






























Interactive Weather Map
Tropical Storm Tracking
New forecast layout! Learn more

10-Day Weather Forecast

Advertisements
Track Severe Weather on mobile